Time;durP1;ratioP1;P1;durP2;ratioP2;P2;SDS_P1;SDS_P2;PMS_P1;PMS_P2;Temp;Humidity;BMP_temperature;BMP_pressure;BME280_temperature;BME280_humidity;BME280_pressure;Samples;Min_cycle;Max_cycle;Signal;HPM_P1;HPM_P2
2022/09/10 00:00:06;;;;;;;1.50;0.60;;;18.00;89.60;;;;;;5099057;28;20870;-65
2022/09/10 00:02:32;;;;;;;1.83;0.93;;;17.90;90.20;;;;;;5099570;28;20498;-65
2022/09/10 00:05:01;;;;;;;1.60;0.63;;;18.00;90.10;;;;;;5102490;28;20448;-65
2022/09/10 00:07:28;;;;;;;6.30;1.00;;;18.00;90.20;;;;;;5103140;28;20798;-65
2022/09/10 00:09:55;;;;;;;1.87;0.90;;;18.00;90.30;;;;;;5104719;28;20464;-64
2022/09/10 00:12:23;;;;;;;4.63;0.90;;;18.00;90.30;;;;;;5104078;28;20471;-65
2022/09/10 00:14:50;;;;;;;1.30;0.70;;;18.00;90.30;;;;;;5102678;28;20451;-65
2022/09/10 00:17:16;;;;;;;3.73;0.60;;;18.00;90.50;;;;;;5103349;28;20451;-65
2022/09/10 00:19:43;;;;;;;2.67;0.93;;;18.00;90.50;;;;;;5104060;28;20450;-65
2022/09/10 00:22:11;;;;;;;0.87;0.60;;;18.00;90.50;;;;;;5103115;28;20444;-65
2022/09/10 00:24:37;;;;;;;4.60;1.40;;;18.10;90.50;;;;;;5103892;28;20862;-65
2022/09/10 00:27:04;;;;;;;2.90;0.90;;;18.10;90.50;;;;;;5104508;28;20440;-64
2022/09/10 00:29:32;;;;;;;5.23;1.00;;;18.10;90.40;;;;;;5103484;28;20488;-64
2022/09/10 00:31:59;;;;;;;2.43;0.83;;;18.20;90.40;;;;;;5103308;28;20458;-64
2022/09/10 00:34:26;;;;;;;10.93;1.10;;;18.20;90.40;;;;;;5103329;28;20940;-66
2022/09/10 00:36:52;;;;;;;6.00;1.13;;;18.30;90.40;;;;;;5103517;28;20455;-65
2022/09/10 00:39:20;;;;;;;5.50;1.00;;;18.20;90.00;;;;;;5103708;28;20447;-66
2022/09/10 00:41:48;;;;;;;6.37;1.20;;;18.20;90.00;;;;;;5103763;28;20452;-65
2022/09/10 00:44:56;;;;;;;8.00;1.30;;;18.20;90.10;;;;;;5102783;28;20464;-65
2022/09/10 00:47:27;;;;;;;4.10;1.23;;;18.20;90.10;;;;;;5102880;28;20467;-65
2022/09/10 00:50:00;;;;;;;1.17;0.80;;;18.20;90.20;;;;;;5102558;28;20507;-65
2022/09/10 00:52:28;;;;;;;6.07;1.20;;;18.20;90.30;;;;;;5100997;28;20479;-65
2022/09/10 00:54:56;;;;;;;2.80;1.10;;;18.20;90.40;;;;;;5105357;28;20550;-65
2022/09/10 00:57:23;;;;;;;4.10;1.27;;;18.20;90.30;;;;;;5103905;28;20466;-65
2022/09/10 00:59:53;;;;;;;2.30;0.90;;;18.20;90.40;;;;;;5104093;28;20456;-65
2022/09/10 01:02:21;;;;;;;4.17;1.37;;;18.30;90.40;;;;;;5103827;28;20490;-65
2022/09/10 01:04:50;;;;;;;4.27;1.27;;;18.30;90.40;;;;;;5103841;28;20454;-65
2022/09/10 01:07:17;;;;;;;2.87;1.20;;;18.30;90.40;;;;;;5103734;28;20459;-64
2022/09/10 01:09:44;;;;;;;2.57;1.37;;;18.30;90.40;;;;;;5104165;28;20482;-64
2022/09/10 01:12:27;;;;;;;4.20;1.17;;;18.20;90.50;;;;;;5104850;28;20444;-65
2022/09/10 01:15:09;;;;;;;2.80;1.50;;;18.20;90.70;;;;;;5103283;28;20444;-65
2022/09/10 01:17:49;;;;;;;3.70;1.27;;;18.20;90.70;;;;;;5103467;28;20451;-64
2022/09/10 01:20:51;;;;;;;2.83;1.80;;;18.20;90.90;;;;;;5104022;28;20451;-64
2022/09/10 01:23:59;;;;;;;1.73;0.93;;;18.20;90.90;;;;;;5001270;28;20468;-64
2022/09/10 01:26:37;;;;;;;5.60;1.60;;;18.20;90.90;;;;;;5103615;28;20439;-64
2022/09/10 01:29:13;;;;;;;3.50;1.33;;;18.20;91.00;;;;;;5103153;28;20431;-64
2022/09/10 01:31:53;;;;;;;4.40;1.50;;;18.20;91.10;;;;;;5103901;28;20432;-65
2022/09/10 01:34:28;;;;;;;4.47;1.50;;;18.20;91.20;;;;;;5104339;28;20474;-65
2022/09/10 01:37:01;;;;;;;5.93;1.60;;;18.20;91.30;;;;;;5103041;28;20927;-65
2022/09/10 01:39:29;;;;;;;3.80;1.87;;;18.20;91.70;;;;;;5103565;28;20441;-65
2022/09/10 01:41:55;;;;;;;7.70;1.53;;;18.10;91.20;;;;;;5102789;28;20455;-65
2022/09/10 01:44:45;;;;;;;5.97;1.47;;;18.20;91.30;;;;;;5102830;28;20480;-65
2022/09/10 01:47:17;;;;;;;6.53;1.70;;;18.20;91.40;;;;;;5102647;28;20854;-65
2022/09/10 01:49:57;;;;;;;4.83;1.93;;;18.10;91.40;;;;;;5102404;28;20494;-65
2022/09/10 01:52:32;;;;;;;3.17;1.60;;;18.10;91.50;;;;;;5102102;28;20468;-65
2022/09/10 01:55:10;;;;;;;5.10;1.50;;;18.10;91.40;;;;;;5081766;28;20452;-64
2022/09/10 01:57:47;;;;;;;5.60;2.60;;;18.20;91.50;;;;;;5082462;28;20440;-64
2022/09/10 02:00:17;;;;;;;7.13;2.60;;;18.20;91.30;;;;;;5081954;28;20482;-64
2022/09/10 02:02:48;;;;;;;7.60;1.97;;;18.20;91.40;;;;;;5082098;28;20475;-65
2022/09/10 02:05:19;;;;;;;6.13;1.57;;;18.20;91.40;;;;;;5081732;28;20433;-65
2022/09/10 02:07:48;;;;;;;6.83;1.47;;;18.20;91.40;;;;;;5081516;28;20992;-65
2022/09/10 02:10:15;;;;;;;4.63;1.73;;;18.20;91.40;;;;;;5081842;28;20472;-65
2022/09/10 02:12:42;;;;;;;6.90;2.00;;;18.20;91.40;;;;;;5082202;28;20477;-65
2022/09/10 02:15:10;;;;;;;8.53;1.67;;;18.20;91.50;;;;;;5082046;28;20449;-65
2022/09/10 02:17:40;;;;;;;3.33;1.37;;;18.20;91.50;;;;;;5082194;28;20464;-65
2022/09/10 02:20:12;;;;;;;5.20;1.87;;;18.20;91.50;;;;;;5081807;28;20548;-65
2022/09/10 02:22:42;;;;;;;4.10;1.80;;;18.20;91.60;;;;;;5081617;28;21091;-65
2022/09/10 02:25:09;;;;;;;2.17;1.80;;;18.20;91.70;;;;;;5080573;28;20448;-65
2022/09/10 02:27:37;;;;;;;8.03;1.63;;;18.10;91.90;;;;;;5080723;28;20473;-64
2022/09/10 02:30:04;;;;;;;5.50;2.13;;;18.10;91.90;;;;;;5080441;28;20484;-64
2022/09/10 02:32:31;;;;;;;4.00;1.83;;;18.10;92.20;;;;;;5080177;28;20484;-65
2022/09/10 02:34:59;;;;;;;6.37;1.73;;;18.10;92.30;;;;;;5080730;28;20872;-65
2022/09/10 02:37:25;;;;;;;4.60;1.57;;;18.00;92.40;;;;;;5080404;28;20440;-65
2022/09/10 02:39:53;;;;;;;7.53;2.37;;;18.00;92.60;;;;;;5080623;28;20440;-64
2022/09/10 02:42:19;;;;;;;3.30;1.40;;;18.00;92.60;;;;;;5081089;28;20469;-64
2022/09/10 02:44:46;;;;;;;6.97;1.77;;;18.00;92.70;;;;;;5080281;28;20869;-65
2022/09/10 02:47:15;;;;;;;3.60;1.50;;;18.00;92.60;;;;;;5080945;28;20532;-65
2022/09/10 02:49:41;;;;;;;4.07;1.80;;;18.00;92.50;;;;;;5080407;28;20493;-64
2022/09/10 02:52:11;;;;;;;4.20;1.83;;;18.00;92.40;;;;;;5081109;28;20459;-64
2022/09/10 02:54:39;;;;;;;4.33;1.90;;;17.90;92.40;;;;;;5080132;28;20461;-64
2022/09/10 02:57:06;;;;;;;3.53;1.80;;;17.90;92.40;;;;;;5081315;28;20476;-64
2022/09/10 02:59:33;;;;;;;3.63;2.10;;;17.90;92.40;;;;;;5081140;28;20444;-65
2022/09/10 03:02:00;;;;;;;3.50;2.20;;;17.90;92.50;;;;;;5080702;28;20450;-65
2022/09/10 03:04:27;;;;;;;4.70;2.33;;;17.90;92.80;;;;;;5079789;28;20453;-65
2022/09/10 03:06:54;;;;;;;5.60;2.00;;;17.90;93.00;;;;;;5079376;28;20452;-65
2022/09/10 03:09:22;;;;;;;3.63;1.83;;;17.80;93.10;;;;;;5079380;28;20952;-64
2022/09/10 03:11:50;;;;;;;5.17;2.30;;;17.80;93.00;;;;;;5079818;28;20491;-65
2022/09/10 03:14:19;;;;;;;7.70;2.20;;;17.80;93.00;;;;;;5079894;28;20484;-65
2022/09/10 03:16:46;;;;;;;9.87;2.47;;;17.80;93.10;;;;;;5079877;28;20456;-65
2022/09/10 03:19:13;;;;;;;5.40;2.20;;;17.80;92.90;;;;;;5079738;28;20460;-65
2022/09/10 03:21:41;;;;;;;6.90;2.80;;;17.70;93.10;;;;;;5079290;28;20452;-65
2022/09/10 03:24:09;;;;;;;5.03;2.13;;;17.80;93.20;;;;;;5079229;28;20895;-65
2022/09/10 03:26:37;;;;;;;4.37;1.90;;;17.80;93.30;;;;;;5079812;28;20999;-65
2022/09/10 03:29:04;;;;;;;3.70;1.90;;;17.80;93.20;;;;;;5079274;28;20444;-65
2022/09/10 03:31:31;;;;;;;3.33;2.00;;;17.80;93.10;;;;;;5077584;28;21026;-64
2022/09/10 03:33:58;;;;;;;5.00;2.50;;;17.90;93.10;;;;;;5074411;28;20480;-64
2022/09/10 03:36:27;;;;;;;7.40;2.60;;;17.90;93.00;;;;;;5077383;28;20449;-64
2022/09/10 03:38:53;;;;;;;4.13;2.10;;;17.90;92.90;;;;;;5077829;28;20461;-64
2022/09/10 03:41:20;;;;;;;2.60;2.00;;;17.90;92.80;;;;;;5078537;28;20447;-64
2022/09/10 03:43:48;;;;;;;3.80;1.63;;;17.90;92.80;;;;;;5079294;28;20472;-65
2022/09/10 03:46:15;;;;;;;5.40;2.37;;;17.90;92.90;;;;;;5079133;28;20511;-65
2022/09/10 03:48:43;;;;;;;4.50;2.20;;;17.90;92.90;;;;;;5078886;28;20456;-64
2022/09/10 03:51:10;;;;;;;3.83;2.23;;;17.90;93.00;;;;;;5078868;28;20907;-64
2022/09/10 03:53:37;;;;;;;7.43;2.20;;;17.90;92.90;;;;;;5079855;28;20889;-64
2022/09/10 03:56:04;;;;;;;7.33;2.63;;;17.90;93.00;;;;;;5079738;28;20479;-65
2022/09/10 03:58:31;;;;;;;4.70;2.23;;;17.90;93.00;;;;;;5079354;28;20437;-65
2022/09/10 04:00:59;;;;;;;8.50;2.37;;;17.90;93.10;;;;;;5079551;28;20452;-65
2022/09/10 04:03:26;;;;;;;4.30;2.50;;;17.90;93.10;;;;;;5079824;28;20465;-65
2022/09/10 04:05:53;;;;;;;5.10;2.40;;;17.90;93.30;;;;;;5079895;28;20448;-65
2022/09/10 04:08:20;;;;;;;5.47;2.40;;;17.90;93.40;;;;;;5079358;28;20798;-64
2022/09/10 04:10:47;;;;;;;5.93;2.43;;;17.90;93.40;;;;;;5079764;28;20485;-64
2022/09/10 04:13:14;;;;;;;6.50;2.17;;;17.90;93.50;;;;;;5080087;28;20489;-65
2022/09/10 04:15:44;;;;;;;8.73;2.70;;;17.80;93.50;;;;;;5078916;28;20447;-65
2022/09/10 04:18:13;;;;;;;5.80;2.77;;;17.80;93.30;;;;;;5079778;28;20437;-65
2022/09/10 04:20:41;;;;;;;6.17;2.70;;;17.90;93.40;;;;;;5078909;28;20472;-65
2022/09/10 04:23:07;;;;;;;4.13;2.63;;;17.90;93.50;;;;;;5078143;28;20538;-65
2022/09/10 04:25:34;;;;;;;8.43;2.53;;;17.90;93.50;;;;;;5078872;28;20444;-65
2022/09/10 04:28:01;;;;;;;6.63;2.33;;;17.90;93.60;;;;;;5078759;28;20444;-65
2022/09/10 04:30:29;;;;;;;6.20;3.33;;;17.90;93.60;;;;;;5079116;28;20534;-64
2022/09/10 04:32:56;;;;;;;8.30;2.57;;;17.90;93.60;;;;;;5078247;28;20468;-64
2022/09/10 04:35:25;;;;;;;6.37;3.10;;;17.90;93.60;;;;;;5078926;28;20459;-64
2022/09/10 04:37:52;;;;;;;7.13;2.53;;;17.80;93.50;;;;;;5078502;28;20550;-64
2022/09/10 04:40:19;;;;;;;3.60;2.63;;;17.80;93.60;;;;;;5076681;28;20449;-64
2022/09/10 04:42:45;;;;;;;6.10;2.57;;;17.80;93.80;;;;;;5078519;28;20480;-65
2022/09/10 04:45:12;;;;;;;4.30;2.57;;;17.90;93.80;;;;;;5081670;28;20456;-65
2022/09/10 04:47:39;;;;;;;9.27;3.20;;;17.90;93.70;;;;;;5080054;28;20449;-64
2022/09/10 04:50:07;;;;;;;7.10;2.07;;;17.80;93.30;;;;;;5081269;28;20843;-64
2022/09/10 04:52:35;;;;;;;5.93;2.97;;;17.90;93.60;;;;;;5082779;28;20479;-64
2022/09/10 04:55:02;;;;;;;5.53;2.80;;;17.90;93.60;;;;;;5083483;28;20460;-65
2022/09/10 04:57:29;;;;;;;5.00;2.77;;;17.90;93.60;;;;;;5083629;28;20475;-64
2022/09/10 04:59:56;;;;;;;6.80;2.40;;;17.90;93.70;;;;;;5083037;28;20444;-64
2022/09/10 05:02:22;;;;;;;5.93;3.00;;;17.90;93.60;;;;;;5081806;28;20510;-64
2022/09/10 05:04:49;;;;;;;14.03;3.10;;;17.90;93.60;;;;;;5082257;28;20441;-64
2022/09/10 05:07:16;;;;;;;6.90;2.60;;;17.90;93.30;;;;;;5082730;28;20444;-65
2022/09/10 05:09:44;;;;;;;5.77;2.73;;;17.90;93.50;;;;;;5081976;28;20440;-64
2022/09/10 05:12:11;;;;;;;4.93;2.60;;;17.90;93.50;;;;;;5082071;28;20527;-65
2022/09/10 05:14:37;;;;;;;8.00;2.83;;;17.90;93.50;;;;;;5082353;28;20433;-65
2022/09/10 05:17:05;;;;;;;2.43;2.00;;;17.90;93.70;;;;;;5082475;28;20467;-65
2022/09/10 05:19:31;;;;;;;5.90;2.60;;;18.00;93.60;;;;;;5081784;28;20449;-64
2022/09/10 05:21:58;;;;;;;4.37;2.43;;;18.00;93.60;;;;;;5082762;28;20441;-65
2022/09/10 05:24:26;;;;;;;5.93;3.73;;;18.00;93.60;;;;;;5081859;28;20953;-65
2022/09/10 05:26:55;;;;;;;4.40;2.70;;;18.00;93.60;;;;;;5082419;28;20477;-64
2022/09/10 05:29:22;;;;;;;4.47;2.50;;;18.00;93.80;;;;;;5081682;28;20448;-64
2022/09/10 05:31:49;;;;;;;5.57;2.37;;;18.00;93.60;;;;;;5079283;28;20865;-64
2022/09/10 05:34:16;;;;;;;5.43;2.37;;;18.00;93.60;;;;;;5082244;28;20465;-64
2022/09/10 05:36:42;;;;;;;5.43;2.33;;;18.00;93.40;;;;;;5081790;28;20461;-65
2022/09/10 05:39:09;;;;;;;4.77;2.23;;;18.00;93.60;;;;;;5081631;28;20984;-64
2022/09/10 05:41:36;;;;;;;5.40;2.57;;;18.00;93.60;;;;;;5081850;28;20456;-65
2022/09/10 05:44:04;;;;;;;4.80;2.30;;;18.00;93.40;;;;;;5081918;28;20460;-65
2022/09/10 05:46:32;;;;;;;3.50;2.50;;;18.00;93.60;;;;;;5081404;28;20457;-64
2022/09/10 05:48:58;;;;;;;5.60;2.80;;;18.10;93.40;;;;;;5080728;28;20441;-64
2022/09/10 05:51:28;;;;;;;8.03;2.90;;;18.10;93.50;;;;;;5080824;28;21020;-64
2022/09/10 05:53:56;;;;;;;8.80;2.70;;;18.00;93.60;;;;;;5080686;28;20480;-63
2022/09/10 05:56:24;;;;;;;5.33;2.50;;;18.10;93.60;;;;;;5081392;28;20448;-63
2022/09/10 05:58:51;;;;;;;10.73;2.87;;;18.00;93.60;;;;;;5082534;28;20449;-64
2022/09/10 06:01:19;;;;;;;7.27;2.70;;;18.00;93.80;;;;;;5081179;28;20956;-64
2022/09/10 06:03:46;;;;;;;3.00;2.57;;;18.00;93.90;;;;;;5080959;28;20468;-63
2022/09/10 06:06:13;;;;;;;9.50;2.60;;;18.10;94.10;;;;;;5082809;28;20437;-63
2022/09/10 06:08:39;;;;;;;9.67;3.00;;;18.10;94.20;;;;;;5081958;28;20437;-62
2022/09/10 06:11:07;;;;;;;9.00;2.80;;;18.20;94.30;;;;;;5082558;28;20480;-63
2022/09/10 06:13:34;;;;;;;3.83;3.10;;;18.20;94.40;;;;;;5081648;28;20468;-64
2022/09/10 06:16:01;;;;;;;7.53;3.10;;;18.20;94.40;;;;;;5079785;28;20452;-64
2022/09/10 06:18:30;;;;;;;10.00;3.43;;;18.20;94.40;;;;;;5079836;28;20449;-64
2022/09/10 06:21:05;;;;;;;6.13;3.30;;;18.20;94.40;;;;;;5080722;28;20472;-64
2022/09/10 06:23:32;;;;;;;11.00;3.30;;;18.30;94.20;;;;;;5081082;28;20464;-65
2022/09/10 06:26:02;;;;;;;10.17;3.43;;;18.30;94.30;;;;;;5076414;28;20449;-68
2022/09/10 06:28:29;;;;;;;6.87;2.90;;;18.30;94.30;;;;;;5074908;28;20437;-69
2022/09/10 06:30:56;;;;;;;8.40;3.13;;;18.40;94.30;;;;;;5074706;28;20482;-68
2022/09/10 06:33:23;;;;;;;4.50;2.27;;;18.40;94.10;;;;;;5074760;28;20564;-70
2022/09/10 06:35:54;;;;;;;5.60;2.53;;;18.40;94.10;;;;;;5074803;28;20448;-70
2022/09/10 06:38:21;;;;;;;5.90;3.03;;;18.40;94.20;;;;;;5075524;28;21003;-66
2022/09/10 06:40:53;;;;;;;8.73;2.90;;;18.50;94.10;;;;;;5074449;28;20875;-66
2022/09/10 06:43:22;;;;;;;8.33;3.30;;;18.50;94.30;;;;;;5074243;28;20981;-67
2022/09/10 06:45:49;;;;;;;11.83;3.80;;;18.50;94.30;;;;;;5074136;28;20457;-66
2022/09/10 06:48:17;;;;;;;7.80;3.20;;;18.50;94.40;;;;;;5074210;28;20476;-66
2022/09/10 06:50:51;;;;;;;8.17;3.70;;;18.40;94.80;;;;;;5074310;28;20437;-66
2022/09/10 06:53:21;;;;;;;6.03;3.43;;;18.40;94.60;;;;;;5073891;28;20472;-66
2022/09/10 06:55:49;;;;;;;12.33;3.33;;;18.40;94.80;;;;;;5074230;28;20465;-67
2022/09/10 06:58:16;;;;;;;10.10;4.13;;;18.30;94.80;;;;;;5074201;28;20441;-67
2022/09/10 07:00:44;;;;;;;5.13;3.70;;;18.30;94.90;;;;;;5073769;28;20958;-67
2022/09/10 07:03:10;;;;;;;8.13;3.67;;;18.30;95.10;;;;;;5074071;28;20496;-67
2022/09/10 07:05:37;;;;;;;13.63;4.53;;;18.20;95.20;;;;;;5074232;28;20456;-67
2022/09/10 07:08:05;;;;;;;10.30;4.37;;;18.20;95.20;;;;;;5074172;28;20456;-67
2022/09/10 07:10:36;;;;;;;15.23;4.30;;;18.20;95.30;;;;;;5073890;28;20445;-66
2022/09/10 07:13:02;;;;;;;9.63;4.23;;;18.30;95.40;;;;;;5072857;28;20480;-66
2022/09/10 07:15:29;;;;;;;7.93;4.03;;;18.30;95.40;;;;;;5074094;28;20448;-68
2022/09/10 07:17:56;;;;;;;6.20;3.80;;;18.40;95.60;;;;;;5073862;28;20968;-67
2022/09/10 07:20:24;;;;;;;7.50;3.97;;;18.40;95.50;;;;;;5073840;28;20520;-68
2022/09/10 07:22:51;;;;;;;6.57;3.20;;;18.40;95.40;;;;;;5073857;28;20560;-68
2022/09/10 07:25:18;;;;;;;7.87;4.13;;;18.50;95.30;;;;;;5073639;28;20457;-68
2022/09/10 07:27:46;;;;;;;9.27;3.87;;;18.60;95.10;;;;;;5073591;28;20448;-67
2022/09/10 07:30:13;;;;;;;7.60;4.37;;;18.60;94.80;;;;;;5073866;28;20449;-67
2022/09/10 07:32:40;;;;;;;8.13;3.73;;;18.70;95.00;;;;;;5073617;28;20842;-68
2022/09/10 07:35:08;;;;;;;15.53;5.63;;;18.70;94.80;;;;;;5073776;28;20445;-69
2022/09/10 07:37:35;;;;;;;6.10;4.23;;;18.70;94.60;;;;;;5074538;28;20460;-68
2022/09/10 07:40:03;;;;;;;8.00;5.33;;;18.70;94.40;;;;;;5075202;28;20453;-68
2022/09/10 07:42:29;;;;;;;7.17;4.10;;;18.70;94.50;;;;;;5073850;28;20468;-67
2022/09/10 07:44:58;;;;;;;6.13;3.83;;;18.70;94.50;;;;;;5073792;28;20453;-67
2022/09/10 07:47:26;;;;;;;6.57;4.13;;;18.70;94.40;;;;;;5073694;28;20472;-69
2022/09/10 07:49:52;;;;;;;9.10;4.20;;;18.80;94.60;;;;;;5073631;28;20532;-69
2022/09/10 07:52:19;;;;;;;8.00;4.60;;;18.80;94.60;;;;;;5073394;28;20488;-68
2022/09/10 07:54:46;;;;;;;4.70;3.70;;;18.90;94.70;;;;;;5073015;28;20475;-67
2022/09/10 07:57:13;;;;;;;7.13;3.97;;;19.00;94.80;;;;;;5073508;28;20468;-69
2022/09/10 07:59:40;;;;;;;12.77;3.80;;;19.10;94.70;;;;;;5073444;28;20797;-67
2022/09/10 08:02:09;;;;;;;7.17;3.90;;;19.20;94.10;;;;;;5073264;28;20854;-67
2022/09/10 08:04:36;;;;;;;7.00;3.93;;;19.30;93.80;;;;;;5073602;28;20472;-68
2022/09/10 08:07:03;;;;;;;4.93;3.53;;;19.30;93.70;;;;;;5073407;28;20448;-68
2022/09/10 08:09:30;;;;;;;7.03;3.60;;;19.40;93.70;;;;;;5073134;28;20822;-69
2022/09/10 08:11:56;;;;;;;7.00;3.77;;;19.50;93.30;;;;;;5073376;28;20507;-68
2022/09/10 08:14:24;;;;;;;8.30;3.80;;;19.60;93.00;;;;;;5073725;28;20501;-69
2022/09/10 08:16:51;;;;;;;6.63;3.70;;;19.60;92.90;;;;;;5073415;28;20523;-69
2022/09/10 08:19:19;;;;;;;5.90;4.30;;;19.60;92.60;;;;;;5073653;28;20457;-69
2022/09/10 08:21:46;;;;;;;7.20;2.93;;;19.70;92.90;;;;;;5073279;28;20456;-67
2022/09/10 08:24:14;;;;;;;7.13;4.40;;;19.80;90.80;;;;;;5073196;28;20468;-67
2022/09/10 08:26:41;;;;;;;11.73;4.77;;;20.00;91.40;;;;;;5077212;28;20429;-69
2022/09/10 08:29:08;;;;;;;9.50;5.30;;;20.10;91.50;;;;;;5077799;28;20454;-69
2022/09/10 08:31:34;;;;;;;7.10;4.30;;;20.20;92.50;;;;;;5077414;28;20499;-69
2022/09/10 08:34:02;;;;;;;7.17;4.67;;;20.20;92.20;;;;;;5077130;28;20848;-69
2022/09/10 08:36:30;;;;;;;10.77;4.73;;;20.20;91.50;;;;;;5077269;28;20441;-68
2022/09/10 08:38:57;;;;;;;5.87;5.13;;;20.10;91.30;;;;;;5077142;28;20457;-68
2022/09/10 08:41:34;;;;;;;8.57;5.13;;;19.90;91.90;;;;;;5076847;28;20451;-67
2022/09/10 08:44:06;;;;;;;7.20;5.13;;;19.60;92.00;;;;;;5076769;28;20478;-66
2022/09/10 08:46:36;;;;;;;5.90;5.17;;;19.50;92.90;;;;;;5076923;28;20437;-66
2022/09/10 08:49:10;;;;;;;6.07;5.43;;;19.40;93.20;;;;;;5076921;28;20465;-66
2022/09/10 08:51:44;;;;;;;10.37;6.00;;;19.30;93.30;;;;;;5076461;28;20479;-66
2022/09/10 08:54:16;;;;;;;7.07;6.47;;;19.30;93.50;;;;;;5076507;28;20476;-67
2022/09/10 08:56:44;;;;;;;8.10;6.53;;;19.20;93.60;;;;;;5077158;28;20444;-68
2022/09/10 08:59:20;;;;;;;6.73;6.03;;;19.30;93.90;;;;;;5076118;28;20463;-67
2022/09/10 09:01:51;;;;;;;8.37;6.97;;;19.20;93.90;;;;;;5076573;28;20456;-66
2022/09/10 09:04:27;;;;;;;11.33;6.97;;;19.20;94.00;;;;;;5086076;28;20479;-66
2022/09/10 09:07:00;;;;;;;7.60;6.90;;;19.10;94.20;;;;;;5096303;28;20440;-67
2022/09/10 09:09:27;;;;;;;10.90;9.87;;;19.00;94.50;;;;;;5096550;28;20424;-67
2022/09/10 09:12:01;;;;;;;14.57;12.97;;;19.00;94.70;;;;;;5096317;28;20488;-68
2022/09/10 09:14:40;;;;;;;12.00;10.87;;;18.90;94.70;;;;;;5096641;28;20438;-68
2022/09/10 09:17:33;;;;;;;11.90;7.73;;;18.90;95.20;;;;;;5096450;28;20439;-68
2022/09/10 09:20:08;;;;;;;9.17;7.07;;;18.90;95.10;;;;;;5096164;28;20456;-68
2022/09/10 09:22:44;;;;;;;7.80;6.10;;;18.90;95.30;;;;;;5095850;28;20463;-68
2022/09/10 09:25:23;;;;;;;10.93;6.87;;;18.90;95.30;;;;;;5096873;28;20424;-67
2022/09/10 09:27:54;;;;;;;8.50;7.17;;;18.90;95.40;;;;;;5097140;28;20476;-68
2022/09/10 09:30:23;;;;;;;7.73;6.73;;;18.90;95.50;;;;;;5095958;28;20432;-66
2022/09/10 09:32:50;;;;;;;9.60;7.53;;;19.10;95.50;;;;;;5096570;28;20487;-67
2022/09/10 09:35:27;;;;;;;8.40;7.20;;;19.10;95.30;;;;;;5095888;28;20940;-67
2022/09/10 09:38:12;;;;;;;8.20;7.40;;;19.10;95.00;;;;;;5097839;28;20432;-67
2022/09/10 09:40:47;;;;;;;8.23;7.10;;;19.10;95.00;;;;;;5100036;28;20881;-67
2022/09/10 09:43:22;;;;;;;8.23;7.30;;;19.00;94.60;;;;;;5095964;28;20459;-68
2022/09/10 09:45:52;;;;;;;7.53;6.83;;;19.00;94.70;;;;;;5096753;28;20436;-68
2022/09/10 09:48:20;;;;;;;8.23;7.27;;;19.00;94.90;;;;;;5095797;28;20501;-68
2022/09/10 09:50:52;;;;;;;8.20;7.27;;;19.00;95.20;;;;;;5095794;28;20505;-68
2022/09/10 09:53:24;;;;;;;10.60;7.00;;;19.00;95.30;;;;;;5095512;28;20530;-67
2022/09/10 09:55:54;;;;;;;7.93;6.50;;;19.10;95.30;;;;;;5087769;28;20452;-67
2022/09/10 09:58:30;;;;;;;9.10;7.03;;;19.10;95.10;;;;;;5095517;28;20464;-67
2022/09/10 10:01:15;;;;;;;9.90;6.40;;;19.20;95.20;;;;;;5095566;28;20435;-66
2022/09/10 10:03:50;;;;;;;8.50;7.30;;;19.10;94.90;;;;;;5084419;28;20465;-65
2022/09/10 10:06:19;;;;;;;7.50;6.70;;;19.10;94.90;;;;;;5075362;28;20510;-66
2022/09/10 10:08:56;;;;;;;9.00;6.43;;;19.10;95.20;;;;;;5075076;28;20444;-66
2022/09/10 10:11:38;;;;;;;10.43;7.07;;;19.10;94.80;;;;;;5074731;28;20843;-66
2022/09/10 10:14:13;;;;;;;12.63;7.97;;;19.10;95.00;;;;;;5074817;28;20520;-68
2022/09/10 10:16:39;;;;;;;9.10;7.67;;;19.00;95.30;;;;;;5075087;28;20432;-68
2022/09/10 10:19:30;;;;;;;8.53;7.60;;;19.10;95.70;;;;;;5087179;28;20964;-67
2022/09/10 10:21:58;;;;;;;9.40;7.80;;;19.10;95.30;;;;;;5095089;28;20459;-69
2022/09/10 10:24:42;;;;;;;11.70;6.57;;;19.20;95.80;;;;;;5076923;28;20546;-69
2022/09/10 10:27:16;;;;;;;7.60;6.90;;;19.40;95.10;;;;;;5071502;28;20465;-68
2022/09/10 10:29:52;;;;;;;11.37;7.67;;;19.50;94.30;;;;;;5074667;28;20808;-68
2022/09/10 10:32:19;;;;;;;7.40;6.70;;;19.70;94.00;;;;;;5075200;28;20864;-68
2022/09/10 10:34:56;;;;;;;9.70;6.73;;;19.60;93.40;;;;;;5075284;28;20449;-70
2022/09/10 10:37:35;;;;;;;6.97;6.27;;;19.50;93.30;;;;;;5074506;28;21030;-69
2022/09/10 10:40:14;;;;;;;8.40;6.90;;;19.40;93.50;;;;;;5074388;28;20860;-68
2022/09/10 10:42:46;;;;;;;8.30;7.13;;;19.30;94.20;;;;;;5076670;28;20460;-67
2022/09/10 10:45:37;;;;;;;12.83;7.30;;;19.30;94.60;;;;;;5094868;28;20803;-67
2022/09/10 10:48:11;;;;;;;10.13;7.90;;;19.30;94.20;;;;;;5094737;28;20432;-67
2022/09/10 10:50:49;;;;;;;9.20;8.23;;;19.10;94.90;;;;;;5094575;28;20440;-68
2022/09/10 10:53:25;;;;;;;13.13;8.90;;;19.00;95.10;;;;;;5087143;28;20499;-68
2022/09/10 10:56:04;;;;;;;9.03;7.63;;;18.90;95.50;;;;;;5074492;28;21007;-69
2022/09/10 10:58:58;;;;;;;8.57;7.60;;;18.90;95.40;;;;;;5074512;28;20771;-69
2022/09/10 11:01:28;;;;;;;9.03;8.13;;;18.90;95.60;;;;;;5074334;28;20519;-68
2022/09/10 11:04:01;;;;;;;9.03;7.33;;;18.90;95.70;;;;;;5074175;28;20468;-68
2022/09/10 11:06:35;;;;;;;9.70;8.30;;;18.90;95.40;;;;;;5074374;28;20442;-68
2022/09/10 11:09:06;;;;;;;10.20;8.60;;;19.00;95.60;;;;;;5074136;28;20425;-69
2022/09/10 11:11:40;;;;;;;9.60;8.70;;;19.00;94.90;;;;;;5074241;28;20817;-68
2022/09/10 11:14:18;;;;;;;9.77;8.43;;;19.00;95.20;;;;;;5074328;28;20485;-68
2022/09/10 11:16:50;;;;;;;9.50;8.60;;;19.10;95.60;;;;;;5073780;28;20910;-69
2022/09/10 11:19:23;;;;;;;9.60;8.27;;;19.00;94.80;;;;;;5074333;28;20433;-70
2022/09/10 11:21:54;;;;;;;10.27;9.37;;;19.00;95.10;;;;;;5074458;28;20459;-69
2022/09/10 11:24:25;;;;;;;8.43;7.60;;;19.10;95.70;;;;;;5074553;28;20461;-70
2022/09/10 11:27:00;;;;;;;10.47;7.63;;;19.10;95.20;;;;;;5074170;28;20444;-68
2022/09/10 11:29:36;;;;;;;8.60;6.20;;;19.00;94.70;;;;;;5073715;28;20432;-68
2022/09/10 11:32:08;;;;;;;9.43;6.40;;;19.10;94.40;;;;;;5073539;28;20425;-68
2022/09/10 11:34:46;;;;;;;9.00;6.97;;;19.30;94.30;;;;;;5073666;28;20440;-68
2022/09/10 11:37:19;;;;;;;7.63;7.00;;;19.30;93.80;;;;;;5073745;28;20478;-67
2022/09/10 11:39:48;;;;;;;10.67;7.83;;;19.40;93.60;;;;;;5073746;28;20811;-69
2022/09/10 11:42:23;;;;;;;9.90;9.00;;;19.40;94.40;;;;;;5073223;28;20444;-68
2022/09/10 11:44:58;;;;;;;11.30;8.73;;;19.30;94.50;;;;;;5073248;28;20924;-68
2022/09/10 11:47:30;;;;;;;14.10;9.83;;;19.20;95.20;;;;;;5073559;28;20444;-70
2022/09/10 11:50:02;;;;;;;10.20;9.40;;;19.20;96.00;;;;;;5073190;28;20909;-69
2022/09/10 11:52:32;;;;;;;11.13;10.13;;;19.30;95.60;;;;;;5073753;28;20484;-70
2022/09/10 11:55:00;;;;;;;9.67;8.67;;;19.50;95.50;;;;;;5073155;28;20464;-71
2022/09/10 11:57:37;;;;;;;11.37;8.80;;;19.70;95.10;;;;;;5073337;28;20432;-71
2022/09/10 12:00:10;;;;;;;8.60;7.90;;;20.20;94.70;;;;;;5075099;28;20441;-70
2022/09/10 12:03:13;;;;;;;8.87;7.97;;;20.50;93.00;;;;;;5077610;28;20461;-72
2022/09/10 12:05:49;;;;;;;7.80;7.00;;;20.50;92.40;;;;;;5077399;28;20962;-71
2022/09/10 12:08:24;;;;;;;9.40;8.40;;;20.40;92.10;;;;;;5077531;28;20425;-70
2022/09/10 12:11:07;;;;;;;10.27;9.27;;;20.30;92.80;;;;;;5077614;28;20444;-70
2022/09/10 12:13:38;;;;;;;9.00;8.20;;;20.10;93.00;;;;;;5077327;28;20484;-72
2022/09/10 12:16:16;;;;;;;11.27;8.40;;;20.40;93.10;;;;;;5077562;28;20464;-72
2022/09/10 12:18:46;;;;;;;9.23;8.10;;;20.50;92.30;;;;;;5077212;28;20457;-72
2022/09/10 12:21:23;;;;;;;9.17;8.27;;;20.50;92.10;;;;;;5078061;28;20557;-70
2022/09/10 12:23:50;;;;;;;9.40;8.53;;;20.60;92.70;;;;;;5077340;28;20471;-70
2022/09/10 12:26:20;;;;;;;9.33;7.90;;;20.70;92.50;;;;;;5077197;28;20817;-70
2022/09/10 12:29:05;;;;;;;8.87;7.97;;;20.80;92.90;;;;;;5077233;28;20441;-70
2022/09/10 12:32:09;;;;;;;8.77;8.00;;;21.10;91.60;;;;;;5077164;28;20441;-70
2022/09/10 12:34:37;;;;;;;9.90;8.07;;;21.40;91.50;;;;;;5077007;28;20476;-71
2022/09/10 12:37:19;;;;;;;8.70;7.80;;;21.60;91.00;;;;;;5077092;28;20480;-71
2022/09/10 12:39:47;;;;;;;9.37;7.93;;;21.70;90.50;;;;;;5076971;28;20503;-71
2022/09/10 12:42:32;;;;;;;9.57;8.67;;;21.70;90.00;;;;;;5076780;28;20859;-71
2022/09/10 12:45:00;;;;;;;8.53;7.70;;;21.90;90.00;;;;;;5077055;28;20445;-71
2022/09/10 12:47:45;;;;;;;12.20;8.27;;;22.30;90.10;;;;;;5076679;28;20932;-70
2022/09/10 12:50:35;;;;;;;7.40;6.80;;;22.80;85.80;;;;;;5076934;28;20432;-70
2022/09/10 12:53:39;;;;;;;10.50;7.53;;;23.20;82.70;;;;;;5076489;28;20500;-70
2022/09/10 12:56:21;;;;;;;7.20;6.50;;;23.10;83.70;;;;;;5076608;28;20440;-71
2022/09/10 12:59:05;;;;;;;8.53;7.73;;;22.90;82.50;;;;;;5076802;28;20425;-71
2022/09/10 13:01:40;;;;;;;8.47;7.40;;;22.60;82.70;;;;;;5076741;28;20429;-71
2022/09/10 13:04:23;;;;;;;7.43;6.73;;;22.30;84.80;;;;;;5076657;28;20460;-71